createdAt,value
2023-02-06T00:00:50.202Z,80.17
2023-02-06T00:03:18.029Z,80.17
2023-02-06T00:06:00.059Z,79.88
2023-02-06T00:08:27.939Z,80.85
2023-02-06T00:10:55.958Z,81.41
2023-02-06T00:13:23.276Z,81.52
2023-02-06T00:15:50.570Z,81.24
2023-02-06T00:18:17.943Z,81.10
2023-02-06T00:20:45.149Z,81.90
2023-02-06T00:23:12.469Z,81.63
2023-02-06T00:25:39.804Z,82.23
2023-02-06T00:28:07.095Z,82.34
2023-02-06T00:30:34.413Z,82.00
2023-02-06T00:33:01.691Z,82.10
2023-02-06T00:35:29.074Z,82.34
2023-02-06T00:37:56.691Z,83.16
2023-02-06T00:40:24.025Z,81.63
2023-02-06T00:42:51.180Z,82.01
2023-02-06T00:45:18.446Z,82.51
2023-02-06T00:47:45.729Z,82.64
2023-02-06T00:50:12.964Z,82.57
2023-02-06T00:52:40.309Z,81.84
2023-02-06T00:55:07.799Z,83.75
2023-02-06T00:57:35.116Z,83.58
2023-02-06T01:00:04.467Z,83.17
2023-02-06T01:02:31.896Z,83.18
2023-02-06T01:04:59.269Z,84.60
2023-02-06T01:07:26.964Z,84.42
2023-02-06T01:09:54.273Z,84.61
2023-02-06T01:12:21.758Z,84.94
2023-02-06T01:14:49.239Z,83.84
2023-02-06T01:17:16.615Z,85.24
2023-02-06T01:19:44.553Z,85.21
2023-02-06T01:22:11.796Z,83.68
2023-02-06T01:24:39.010Z,82.76
2023-02-06T01:27:06.416Z,84.14
2023-02-06T01:29:33.739Z,84.39
2023-02-06T01:32:01.070Z,84.42
2023-02-06T01:34:28.323Z,84.27
2023-02-06T01:36:55.700Z,84.19
2023-02-06T01:39:22.907Z,83.85
2023-02-06T01:41:51.111Z,84.31
2023-02-06T01:44:24.331Z,85.58
2023-02-06T01:46:54.951Z,85.63
2023-02-06T01:49:30.972Z,85.52
2023-02-06T01:52:31.173Z,84.85
2023-02-06T01:55:01.367Z,84.53
2023-02-06T01:57:29.500Z,83.75
2023-02-06T01:59:59.980Z,85.57
2023-02-06T02:02:30.024Z,85.22
2023-02-06T02:04:57.207Z,84.54
2023-02-06T02:07:31.954Z,85.71
2023-02-06T02:09:59.615Z,85.70
2023-02-06T02:12:28.374Z,86.21
2023-02-06T02:14:57.069Z,86.48
2023-02-06T02:17:33.333Z,86.20
2023-02-06T02:20:15.883Z,85.66
2023-02-06T02:22:58.750Z,85.76
2023-02-06T02:26:02.993Z,86.42
2023-02-06T02:28:53.893Z,86.21
2023-02-06T02:31:39.089Z,86.87
2023-02-06T02:34:33.187Z,86.09
2023-02-06T02:37:11.031Z,85.81
2023-02-06T02:39:50.284Z,84.95
2023-02-06T02:42:27.929Z,86.13
2023-02-06T02:45:10.490Z,86.83
2023-02-06T02:48:07.704Z,87.32
2023-02-06T02:50:35.799Z,86.07
2023-02-06T02:53:05.118Z,86.23
2023-02-06T02:55:32.494Z,86.26
2023-02-06T02:58:06.912Z,86.11
2023-02-06T03:00:37.273Z,86.65
2023-02-06T03:03:08.444Z,86.49
2023-02-06T03:05:37.538Z,86.41
2023-02-06T03:08:20.253Z,86.48
2023-02-06T03:11:09.627Z,85.73
2023-02-06T03:14:06.025Z,87.58
2023-02-06T03:16:37.647Z,88.60
2023-02-06T03:19:09.627Z,88.96
2023-02-06T03:21:40.004Z,88.27
2023-02-06T03:24:29.534Z,88.26
2023-02-06T03:26:59.659Z,88.78
2023-02-06T03:29:29.663Z,88.68
2023-02-06T03:32:06.298Z,88.83
2023-02-06T03:35:15.133Z,89.62
2023-02-06T03:37:42.834Z,89.72
2023-02-06T03:40:11.266Z,89.23
2023-02-06T03:42:41.423Z,88.29
2023-02-06T03:45:37.579Z,88.62
2023-02-06T03:48:29.935Z,87.91
2023-02-06T03:50:59.733Z,89.35
2023-02-06T03:53:27.385Z,89.19
2023-02-06T03:55:58.570Z,89.20
2023-02-06T03:58:26.190Z,89.23
2023-02-06T04:00:53.801Z,88.77
2023-02-06T04:03:21.530Z,88.96
2023-02-06T04:05:49.017Z,89.03
2023-02-06T04:08:16.614Z,88.60
2023-02-06T04:10:43.927Z,88.74
2023-02-06T04:13:11.234Z,88.13
2023-02-06T04:15:38.618Z,88.10
2023-02-06T04:18:06.239Z,88.17
2023-02-06T04:20:33.750Z,88.43
2023-02-06T04:23:00.962Z,88.38
2023-02-06T04:25:28.252Z,88.83
2023-02-06T04:27:55.576Z,88.61
2023-02-06T04:30:22.892Z,89.80
2023-02-06T04:32:50.215Z,89.47
2023-02-06T04:35:17.877Z,89.03
2023-02-06T04:37:45.144Z,89.49
2023-02-06T04:40:12.853Z,89.22
2023-02-06T04:42:43.631Z,89.08
2023-02-06T04:45:10.918Z,89.32
2023-02-06T04:47:38.682Z,88.88
2023-02-06T04:50:06.321Z,89.27
2023-02-06T04:52:33.511Z,89.53
2023-02-06T04:55:00.758Z,89.74
2023-02-06T04:57:28.131Z,89.29
2023-02-06T04:59:55.347Z,89.20
2023-02-06T05:02:22.670Z,89.46
2023-02-06T05:04:51.907Z,89.86
2023-02-06T05:07:19.765Z,89.92
2023-02-06T05:09:47.280Z,88.81
2023-02-06T05:12:14.547Z,89.86
2023-02-06T05:14:41.822Z,89.84
2023-02-06T05:17:09.197Z,89.39
2023-02-06T05:19:36.643Z,89.79
2023-02-06T05:22:04.113Z,90.07
2023-02-06T05:24:31.449Z,90.10
2023-02-06T05:26:58.819Z,89.36
2023-02-06T05:29:26.151Z,89.26
2023-02-06T05:31:54.092Z,89.84
2023-02-06T05:34:21.314Z,89.48
2023-02-06T05:36:48.593Z,89.72
2023-02-06T05:39:15.840Z,88.46
2023-02-06T05:41:43.060Z,87.75
2023-02-06T05:44:11.048Z,87.37
2023-02-06T05:46:38.403Z,86.92
2023-02-06T05:49:05.947Z,87.08
2023-02-06T05:51:33.244Z,86.94
2023-02-06T05:54:00.605Z,88.01
2023-02-06T05:56:27.865Z,88.93
2023-02-06T05:58:55.185Z,88.26
2023-02-06T06:01:22.477Z,87.71
2023-02-06T06:03:49.946Z,88.39
2023-02-06T06:06:17.362Z,88.62
2023-02-06T06:08:44.651Z,89.23
2023-02-06T06:11:12.813Z,88.80
2023-02-06T06:13:40.796Z,88.31
2023-02-06T06:16:08.273Z,88.15
2023-02-06T06:18:35.826Z,87.97
2023-02-06T06:21:05.499Z,88.44
2023-02-06T06:23:33.074Z,88.51
2023-02-06T06:26:00.421Z,89.15
2023-02-06T06:28:27.782Z,88.43
2023-02-06T06:31:03.010Z,87.89
2023-02-06T06:33:30.417Z,88.05
2023-02-06T06:35:58.421Z,88.02
2023-02-06T06:38:27.550Z,87.30
2023-02-06T06:40:54.829Z,87.42
2023-02-06T06:43:22.305Z,87.39
2023-02-06T06:45:49.518Z,87.09
2023-02-06T06:48:16.830Z,86.39
2023-02-06T06:50:44.262Z,86.06
2023-02-06T06:53:11.559Z,86.58
2023-02-06T06:55:38.810Z,86.59
2023-02-06T06:58:06.077Z,86.54
2023-02-06T07:00:33.455Z,86.89
2023-02-06T07:03:00.768Z,86.42
2023-02-06T07:05:28.112Z,85.96
2023-02-06T07:07:55.392Z,86.99
2023-02-06T07:10:22.735Z,86.85
2023-02-06T07:12:53.707Z,86.71
2023-02-06T07:15:20.960Z,86.58
2023-02-06T07:17:48.186Z,86.77
2023-02-06T07:20:15.942Z,86.08
2023-02-06T07:22:43.325Z,86.26
2023-02-06T07:25:10.646Z,85.51
2023-02-06T07:27:37.878Z,85.50
2023-02-06T07:30:06.611Z,85.34
2023-02-06T07:32:37.018Z,85.93
2023-02-06T07:35:05.240Z,85.58
2023-02-06T07:37:32.828Z,87.22
2023-02-06T07:40:00.132Z,86.56
2023-02-06T07:42:27.738Z,85.47
2023-02-06T07:45:00.318Z,85.49
2023-02-06T07:47:27.489Z,85.88
2023-02-06T07:49:54.786Z,86.16
2023-02-06T07:52:22.413Z,85.63
2023-02-06T07:54:49.673Z,85.23
2023-02-06T07:57:17.401Z,85.82
2023-02-06T07:59:44.743Z,85.49
2023-02-06T08:02:12.623Z,86.27
2023-02-06T08:04:40.113Z,87.03
2023-02-06T08:07:09.865Z,86.74
2023-02-06T08:09:37.139Z,86.57
2023-02-06T08:12:04.521Z,87.01
2023-02-06T08:14:32.693Z,86.17
2023-02-06T08:17:00.334Z,84.96
2023-02-06T08:19:27.545Z,84.18
2023-02-06T08:21:54.885Z,85.40
2023-02-06T08:24:22.133Z,85.41
2023-02-06T08:26:49.651Z,85.26
2023-02-06T08:29:17.059Z,84.32
2023-02-06T08:31:44.411Z,83.68
2023-02-06T08:34:13.969Z,82.80
2023-02-06T08:36:43.452Z,82.27
2023-02-06T08:39:13.576Z,82.71
2023-02-06T08:41:42.468Z,82.16
2023-02-06T08:44:13.363Z,82.45
2023-02-06T08:46:40.803Z,83.04
2023-02-06T08:49:12.561Z,82.29
2023-02-06T08:51:39.998Z,82.83
2023-02-06T08:54:10.846Z,82.47
2023-02-06T08:56:38.795Z,82.39
2023-02-06T08:59:07.506Z,82.69
2023-02-06T09:01:36.298Z,82.85
2023-02-06T09:04:06.631Z,83.17
2023-02-06T09:06:40.594Z,82.42
2023-02-06T09:09:09.845Z,82.52
2023-02-06T09:11:37.702Z,82.33
2023-02-06T09:14:06.241Z,82.66
2023-02-06T09:16:34.511Z,83.36
2023-02-06T09:19:02.797Z,83.31
2023-02-06T09:21:32.595Z,83.60
2023-02-06T09:24:01.086Z,85.27
2023-02-06T09:26:31.167Z,81.33
2023-02-06T09:29:00.422Z,82.07
2023-02-06T09:31:32.837Z,82.25
2023-02-06T09:34:01.246Z,81.56
2023-02-06T09:36:30.309Z,80.46
2023-02-06T09:38:59.595Z,81.01
2023-02-06T09:41:26.844Z,81.63
2023-02-06T09:44:07.015Z,80.86
2023-02-06T09:46:36.544Z,80.63
2023-02-06T09:49:12.038Z,81.11
2023-02-06T09:52:11.242Z,80.82
2023-02-06T09:54:44.637Z,80.30
2023-02-06T09:57:21.931Z,79.79
2023-02-06T09:59:54.027Z,78.99
2023-02-06T10:02:30.451Z,78.51
2023-02-06T10:05:32.065Z,78.07
2023-02-06T10:08:08.836Z,77.07
2023-02-06T10:10:44.014Z,77.79
2023-02-06T10:13:24.166Z,77.18
2023-02-06T10:15:55.337Z,76.97
2023-02-06T10:18:32.877Z,77.03
2023-02-06T10:21:12.837Z,77.33
2023-02-06T10:23:47.480Z,76.35
2023-02-06T10:26:19.118Z,76.63
2023-02-06T10:28:52.319Z,76.86
2023-02-06T10:31:33.386Z,76.53
2023-02-06T10:34:20.596Z,75.54
2023-02-06T10:36:57.078Z,76.23
2023-02-06T10:39:30.892Z,76.23
2023-02-06T10:42:10.678Z,75.92
2023-02-06T10:44:51.282Z,75.33
2023-02-06T10:47:54.337Z,74.71
2023-02-06T10:50:30.153Z,74.17
2023-02-06T10:53:01.310Z,74.25
2023-02-06T10:55:42.200Z,74.65
2023-02-06T10:58:29.317Z,74.35
2023-02-06T11:00:58.599Z,75.07
2023-02-06T11:03:30.642Z,75.04
2023-02-06T11:05:59.483Z,74.47
2023-02-06T11:08:34.663Z,73.99
2023-02-06T11:11:32.398Z,73.98
2023-02-06T11:14:25.237Z,73.25
2023-02-06T11:16:53.468Z,72.70
2023-02-06T11:19:34.091Z,73.15
2023-02-06T11:22:04.632Z,73.20
2023-02-06T11:24:32.092Z,72.42
2023-02-06T11:27:02.251Z,72.80
2023-02-06T11:29:37.305Z,72.46
2023-02-06T11:32:06.749Z,72.28
2023-02-06T11:34:52.461Z,72.17
2023-02-06T11:37:37.920Z,72.46
2023-02-06T11:40:18.910Z,71.50
2023-02-06T11:42:48.191Z,71.41
2023-02-06T11:45:30.844Z,70.74
2023-02-06T11:47:58.822Z,71.10
2023-02-06T11:50:30.308Z,70.72
2023-02-06T11:53:19.452Z,69.98
2023-02-06T11:56:13.845Z,70.24
2023-02-06T11:58:41.136Z,69.48
2023-02-06T12:01:19.175Z,68.45
2023-02-06T12:03:58.432Z,68.65
2023-02-06T12:06:43.879Z,68.61
2023-02-06T12:09:13.653Z,68.27
2023-02-06T12:11:53.047Z,68.50
2023-02-06T12:14:33.433Z,67.81
2023-02-06T12:17:03.114Z,67.64
2023-02-06T12:19:47.273Z,66.90
2023-02-06T12:22:18.972Z,67.70
2023-02-06T12:24:48.975Z,67.64
2023-02-06T12:27:39.244Z,67.67
2023-02-06T12:30:26.531Z,67.64
2023-02-06T12:33:04.107Z,68.65
2023-02-06T12:35:43.769Z,68.95
2023-02-06T12:38:44.012Z,68.93
2023-02-06T12:41:28.985Z,68.98
2023-02-06T12:44:33.806Z,68.52
2023-02-06T12:47:14.432Z,68.49
2023-02-06T12:49:55.193Z,67.19
2023-02-06T12:52:31.810Z,66.48
2023-02-06T12:55:35.564Z,68.09
2023-02-06T12:58:04.642Z,68.18
2023-02-06T13:00:54.040Z,68.74
2023-02-06T13:03:28.867Z,67.63
2023-02-06T13:06:03.002Z,67.61
2023-02-06T13:08:47.103Z,67.66
2023-02-06T13:11:32.529Z,67.78
2023-02-06T13:14:02.450Z,66.98
2023-02-06T13:16:42.528Z,66.75
2023-02-06T13:19:32.365Z,64.99
2023-02-06T13:22:13.472Z,64.33
2023-02-06T13:24:42.037Z,63.46
2023-02-06T13:27:09.348Z,64.14
2023-02-06T13:29:38.902Z,63.79
2023-02-06T13:32:12.498Z,62.79
2023-02-06T13:34:44.189Z,61.57
2023-02-06T13:37:38.058Z,61.14
2023-02-06T13:40:23.851Z,60.21
2023-02-06T13:42:56.918Z,59.82
2023-02-06T13:45:29.000Z,59.32
2023-02-06T13:48:08.745Z,59.52
2023-02-06T13:51:14.078Z,61.17
2023-02-06T13:54:19.179Z,59.11
2023-02-06T13:56:46.801Z,58.93
2023-02-06T13:59:19.142Z,59.26
2023-02-06T14:01:46.840Z,59.10
2023-02-06T14:04:20.041Z,59.01
2023-02-06T14:07:23.024Z,59.33
2023-02-06T14:10:38.465Z,57.96
2023-02-06T14:13:45.088Z,56.72
2023-02-06T14:16:33.667Z,56.99
2023-02-06T14:19:22.662Z,56.84
2023-02-06T14:22:08.275Z,56.97
2023-02-06T14:25:07.225Z,57.73
2023-02-06T14:27:44.780Z,57.70
2023-02-06T14:30:49.009Z,57.76
2023-02-06T14:33:31.318Z,56.13
2023-02-06T14:36:23.836Z,55.02
2023-02-06T14:39:40.900Z,53.75
2023-02-06T14:42:32.794Z,53.37
2023-02-06T14:45:04.696Z,54.64
2023-02-06T14:47:51.311Z,55.08
2023-02-06T14:50:23.301Z,54.89
2023-02-06T14:52:58.928Z,52.55
2023-02-06T14:55:35.697Z,52.05
2023-02-06T14:58:13.101Z,51.43
2023-02-06T15:00:40.598Z,51.56
2023-02-06T15:03:15.368Z,52.31
2023-02-06T15:05:43.974Z,52.87
2023-02-06T15:08:19.547Z,52.21
2023-02-06T15:10:47.504Z,50.82
2023-02-06T15:13:23.273Z,50.54
2023-02-06T15:15:56.647Z,47.37
2023-02-06T15:18:24.392Z,46.17
2023-02-06T15:20:58.568Z,45.73
2023-02-06T15:23:53.571Z,45.11
2023-02-06T15:26:32.100Z,45.55
2023-02-06T15:29:01.859Z,45.38
2023-02-06T15:31:29.479Z,46.60
2023-02-06T15:34:00.742Z,48.07
2023-02-06T15:36:33.837Z,48.43
2023-02-06T15:39:02.021Z,49.37
2023-02-06T15:41:31.260Z,49.87
2023-02-06T15:44:04.572Z,50.05
2023-02-06T15:46:32.018Z,50.31
2023-02-06T15:48:59.597Z,50.67
2023-02-06T15:51:29.502Z,50.99
2023-02-06T15:54:15.533Z,50.56
2023-02-06T15:56:43.601Z,50.83
2023-02-06T15:59:24.127Z,51.24
2023-02-06T16:01:52.925Z,50.44
2023-02-06T16:04:28.461Z,49.12
2023-02-06T16:07:10.603Z,48.48
2023-02-06T16:09:44.942Z,47.45
2023-02-06T16:12:13.356Z,47.80
2023-02-06T16:14:41.953Z,47.67
2023-02-06T16:17:15.450Z,47.72
2023-02-06T16:19:48.472Z,46.05
2023-02-06T16:22:24.595Z,46.14
2023-02-06T16:24:55.002Z,46.08
2023-02-06T16:27:27.909Z,46.02
2023-02-06T16:29:56.657Z,46.04
2023-02-06T16:32:25.138Z,45.72
2023-02-06T16:34:52.778Z,46.11
2023-02-06T16:37:25.861Z,46.43
2023-02-06T16:39:53.783Z,46.75
2023-02-06T16:42:23.721Z,47.08
2023-02-06T16:44:53.425Z,47.58
2023-02-06T16:47:21.573Z,47.44
2023-02-06T16:49:49.612Z,47.53
2023-02-06T16:52:22.482Z,47.88
2023-02-06T16:54:49.997Z,48.24
2023-02-06T16:57:29.332Z,48.31
2023-02-06T16:59:56.933Z,48.54
2023-02-06T17:02:25.901Z,49.79
2023-02-06T17:04:53.317Z,49.74
2023-02-06T17:07:25.287Z,50.12
2023-02-06T17:09:54.406Z,49.99
2023-02-06T17:12:22.597Z,50.70
2023-02-06T17:14:49.921Z,51.48
2023-02-06T17:17:20.216Z,51.91
2023-02-06T17:19:48.565Z,51.74
2023-02-06T17:22:16.117Z,52.24
2023-02-06T17:24:43.968Z,52.68
2023-02-06T17:27:17.976Z,52.97
2023-02-06T17:29:47.465Z,52.47
2023-02-06T17:32:16.304Z,53.27
2023-02-06T17:34:43.592Z,53.33
2023-02-06T17:37:20.581Z,53.47
2023-02-06T17:39:52.109Z,53.61
2023-02-06T17:42:19.623Z,54.59
2023-02-06T17:44:46.841Z,55.03
2023-02-06T17:47:14.088Z,54.61
2023-02-06T17:49:41.329Z,53.98
2023-02-06T17:52:08.545Z,54.64
2023-02-06T17:54:35.856Z,54.99
2023-02-06T17:57:03.310Z,54.45
2023-02-06T17:59:30.693Z,54.47
2023-02-06T18:01:59.373Z,55.03
2023-02-06T18:04:27.831Z,54.96
2023-02-06T18:06:55.078Z,55.34
2023-02-06T18:09:22.302Z,55.74
2023-02-06T18:11:49.769Z,55.90
2023-02-06T18:14:17.072Z,56.34
2023-02-06T18:16:45.575Z,56.52
2023-02-06T18:19:13.201Z,57.00
2023-02-06T18:21:40.435Z,56.91
2023-02-06T18:24:08.022Z,56.07
2023-02-06T18:26:35.572Z,56.29
2023-02-06T18:29:05.117Z,56.71
2023-02-06T18:31:34.008Z,56.65
2023-02-06T18:34:03.374Z,56.34
2023-02-06T18:36:30.776Z,56.57
2023-02-06T18:38:58.103Z,57.27
2023-02-06T18:41:44.045Z,57.65
2023-02-06T18:44:12.004Z,58.91
2023-02-06T18:46:39.559Z,58.52
2023-02-06T18:49:06.988Z,58.38
2023-02-06T18:51:34.262Z,59.28
2023-02-06T18:54:01.609Z,59.30
2023-02-06T18:56:29.082Z,58.64
2023-02-06T18:58:56.363Z,59.56
2023-02-06T19:01:24.667Z,60.06
2023-02-06T19:03:53.298Z,60.72
2023-02-06T19:06:28.921Z,61.13
2023-02-06T19:08:56.941Z,61.12
2023-02-06T19:11:24.503Z,60.78
2023-02-06T19:13:51.855Z,61.30
2023-02-06T19:16:20.252Z,60.85
2023-02-06T19:18:48.911Z,61.08
2023-02-06T19:21:18.932Z,60.79
2023-02-06T19:23:46.962Z,61.42
2023-02-06T19:26:15.809Z,61.68
2023-02-06T19:28:43.787Z,61.12
2023-02-06T19:31:12.499Z,61.66
2023-02-06T19:33:41.303Z,62.29
2023-02-06T19:36:16.077Z,62.01
2023-02-06T19:38:44.236Z,62.45
2023-02-06T19:41:18.996Z,62.69
2023-02-06T19:43:47.334Z,64.28
2023-02-06T19:46:16.121Z,63.73
2023-02-06T19:48:45.543Z,64.41
2023-02-06T19:51:15.330Z,64.65
2023-02-06T19:53:45.765Z,65.27
2023-02-06T19:56:26.185Z,66.97
2023-02-06T19:58:57.302Z,67.32
2023-02-06T20:01:25.090Z,67.40
2023-02-06T20:03:53.042Z,67.12
2023-02-06T20:06:20.344Z,67.50
2023-02-06T20:08:47.932Z,67.39
2023-02-06T20:11:18.580Z,67.74
2023-02-06T20:13:47.346Z,67.53
2023-02-06T20:16:17.342Z,67.68
2023-02-06T20:18:45.200Z,67.85
2023-02-06T20:21:27.922Z,67.63
2023-02-06T20:23:58.118Z,67.74
2023-02-06T20:26:27.764Z,68.15
2023-02-06T20:28:55.264Z,68.57
2023-02-06T20:31:23.070Z,68.42
2023-02-06T20:33:50.457Z,68.80
2023-02-06T20:36:24.277Z,69.14
2023-02-06T20:38:53.877Z,69.80
2023-02-06T20:41:23.287Z,69.96
2023-02-06T20:43:50.744Z,70.48
2023-02-06T20:46:18.147Z,70.71
2023-02-06T20:48:46.964Z,70.72
2023-02-06T20:51:14.786Z,70.58
2023-02-06T20:53:42.109Z,69.75
2023-02-06T20:56:14.546Z,69.29
2023-02-06T20:58:43.024Z,69.28
2023-02-06T21:01:19.590Z,69.69
2023-02-06T21:03:47.228Z,70.47
2023-02-06T21:06:15.197Z,70.68
2023-02-06T21:08:42.900Z,70.43
2023-02-06T21:11:10.289Z,70.02
2023-02-06T21:13:40.033Z,70.94
2023-02-06T21:16:08.516Z,71.47
2023-02-06T21:18:36.355Z,71.51
2023-02-06T21:21:09.533Z,71.23
2023-02-06T21:23:41.894Z,70.71
2023-02-06T21:26:10.551Z,70.65
2023-02-06T21:28:38.548Z,71.68
2023-02-06T21:31:09.945Z,71.33
2023-02-06T21:33:37.782Z,71.56
2023-02-06T21:36:07.664Z,71.50
2023-02-06T21:38:36.140Z,71.86
2023-02-06T21:41:12.103Z,71.54
2023-02-06T21:43:39.556Z,72.37
2023-02-06T21:46:07.068Z,71.83
2023-02-06T21:48:35.304Z,70.97
2023-02-06T21:51:16.696Z,71.22
2023-02-06T21:53:45.379Z,70.91
2023-02-06T21:56:18.337Z,70.95
2023-02-06T21:58:46.226Z,71.28
2023-02-06T22:01:26.359Z,70.84
2023-02-06T22:03:54.461Z,71.60
2023-02-06T22:06:21.785Z,70.85
2023-02-06T22:08:54.181Z,70.59
2023-02-06T22:11:24.166Z,70.46
2023-02-06T22:13:52.113Z,71.27
2023-02-06T22:16:27.384Z,71.70
2023-02-06T22:18:55.742Z,71.25
2023-02-06T22:21:26.356Z,70.59
2023-02-06T22:23:56.425Z,70.49
2023-02-06T22:26:23.857Z,71.36
2023-02-06T22:28:51.239Z,71.22
2023-02-06T22:31:23.802Z,71.39
2023-02-06T22:33:51.733Z,71.31
2023-02-06T22:36:23.247Z,72.07
2023-02-06T22:38:56.144Z,72.61
2023-02-06T22:41:23.483Z,73.00
2023-02-06T22:43:51.704Z,72.18
2023-02-06T22:46:34.011Z,72.36
2023-02-06T22:49:01.694Z,71.75
2023-02-06T22:51:29.136Z,72.26
2023-02-06T22:53:56.645Z,72.02
2023-02-06T22:56:27.130Z,71.84
2023-02-06T22:58:56.585Z,71.69
2023-02-06T23:01:25.571Z,71.32
2023-02-06T23:03:54.156Z,71.34
2023-02-06T23:06:21.731Z,71.88
2023-02-06T23:08:49.239Z,72.27
2023-02-06T23:11:16.784Z,72.45
2023-02-06T23:13:44.052Z,73.00
2023-02-06T23:16:12.001Z,72.77
2023-02-06T23:18:39.346Z,72.02
2023-02-06T23:21:11.945Z,71.78
2023-02-06T23:23:39.947Z,71.99
2023-02-06T23:26:10.296Z,71.62
2023-02-06T23:28:38.227Z,71.50
2023-02-06T23:31:06.182Z,71.50
2023-02-06T23:33:33.858Z,72.57
2023-02-06T23:36:10.845Z,72.24
2023-02-06T23:38:39.073Z,72.61
2023-02-06T23:41:11.088Z,71.69
2023-02-06T23:43:39.270Z,71.44
2023-02-06T23:46:10.350Z,71.31
2023-02-06T23:48:39.710Z,70.93
2023-02-06T23:51:07.513Z,71.40
2023-02-06T23:53:34.997Z,71.86
2023-02-06T23:56:08.892Z,72.52
2023-02-06T23:58:36.165Z,72.82
